createdAt,value
2023-01-02T00:02:51.166Z,24
2023-01-02T00:08:09.740Z,24
2023-01-02T00:13:27.962Z,24
2023-01-02T00:18:46.631Z,24
2023-01-02T00:24:05.330Z,24
2023-01-02T00:29:24.125Z,24
2023-01-02T00:34:42.635Z,24
2023-01-02T00:40:00.840Z,24
2023-01-02T00:45:19.069Z,24
2023-01-02T00:50:37.815Z,24
2023-01-02T00:55:56.266Z,24
2023-01-02T01:01:15.183Z,24
2023-01-02T01:06:33.981Z,24
2023-01-02T01:11:52.384Z,24
2023-01-02T01:17:11.151Z,24
2023-01-02T01:22:29.757Z,23.9
2023-01-02T01:27:48.715Z,24
2023-01-02T01:33:07.213Z,24
2023-01-02T01:38:25.447Z,24
2023-01-02T01:43:43.919Z,23.9
2023-01-02T01:49:02.406Z,23.9
2023-01-02T01:54:21.029Z,24
2023-01-02T01:59:39.500Z,23.9
2023-01-02T02:04:57.987Z,23.9
2023-01-02T02:10:16.520Z,24
2023-01-02T02:15:34.783Z,24
2023-01-02T02:20:53.327Z,24
2023-01-02T02:26:12.175Z,24
2023-01-02T02:31:30.437Z,24
2023-01-02T02:36:48.453Z,24
2023-01-02T02:42:06.953Z,24
2023-01-02T02:47:25.413Z,24
2023-01-02T02:52:44.212Z,24
2023-01-02T02:58:03.100Z,24
2023-01-02T03:03:21.784Z,24
2023-01-02T03:08:40.388Z,24
2023-01-02T03:13:58.728Z,24
2023-01-02T03:19:16.946Z,24
2023-01-02T03:24:35.709Z,24
2023-01-02T03:29:54.485Z,24
2023-01-02T03:34:57.625Z,24
2023-01-02T03:40:16.416Z,24
2023-01-02T03:45:34.941Z,24
2023-01-02T03:50:52.881Z,24
2023-01-02T03:56:11.358Z,24
2023-01-02T04:01:30.372Z,24
2023-01-02T04:06:48.793Z,24
2023-01-02T04:12:07.577Z,24
2023-01-02T04:17:26.173Z,24
2023-01-02T04:22:44.739Z,24
2023-01-02T04:28:03.548Z,24
2023-01-02T04:33:22.029Z,24
2023-01-02T04:38:40.591Z,24
2023-01-02T04:43:59.087Z,24
2023-01-02T04:49:17.629Z,24
2023-01-02T04:54:35.917Z,24
2023-01-02T04:59:54.400Z,24
2023-01-02T05:05:12.926Z,24
2023-01-02T05:10:31.713Z,24
2023-01-02T05:15:50.567Z,24
2023-01-02T05:21:09.055Z,24
2023-01-02T05:26:27.807Z,24
2023-01-02T05:31:46.580Z,24
2023-01-02T05:37:04.796Z,24
2023-01-02T05:42:23.016Z,24
2023-01-02T05:47:41.508Z,24
2023-01-02T05:53:00.344Z,24
2023-01-02T05:58:19.118Z,24
2023-01-02T06:03:37.709Z,24
2023-01-02T06:08:55.995Z,24
2023-01-02T06:14:14.204Z,24
2023-01-02T06:19:32.686Z,24
2023-01-02T06:24:50.655Z,24
2023-01-02T06:30:09.062Z,24
2023-01-02T06:35:27.283Z,24
2023-01-02T06:40:29.753Z,24
2023-01-02T06:45:48.319Z,24
2023-01-02T06:50:51.315Z,24
2023-01-02T06:56:10.292Z,24
2023-01-02T07:01:29.324Z,24
2023-01-02T07:06:48.111Z,24
2023-01-02T07:12:06.399Z,24
2023-01-02T07:17:24.610Z,24
2023-01-02T07:22:43.416Z,24
2023-01-02T07:28:01.904Z,24
2023-01-02T07:33:20.653Z,24
2023-01-02T07:38:39.449Z,24
2023-01-02T07:43:58.049Z,24
2023-01-02T07:49:15.969Z,24
2023-01-02T07:54:34.466Z,24.1
2023-01-02T07:59:52.804Z,24.1
2023-01-02T08:05:12.080Z,24.1
2023-01-02T08:10:30.275Z,24.1
2023-01-02T08:15:48.533Z,24.1
2023-01-02T08:21:06.749Z,24.1
2023-01-02T08:26:24.991Z,24.1
2023-01-02T08:31:44.664Z,24.2
2023-01-02T08:37:02.875Z,24.2
2023-01-02T08:42:21.337Z,24.2
2023-01-02T08:47:40.169Z,24.3
2023-01-02T08:52:59.296Z,24.3
2023-01-02T08:58:17.474Z,24.3
2023-01-02T09:03:36.218Z,24.3
2023-01-02T09:08:54.628Z,24.4
2023-01-02T09:14:13.029Z,24.4
2023-01-02T09:19:31.826Z,24.3
2023-01-02T09:24:49.734Z,24.3
2023-01-02T09:30:08.529Z,24.3
2023-01-02T09:35:27.599Z,24.3
2023-01-02T09:40:45.578Z,24.3
2023-01-02T09:46:03.883Z,24.3
2023-01-02T09:51:22.517Z,24.3
2023-01-02T09:56:40.701Z,24.3
2023-01-02T10:01:59.289Z,24.3
2023-01-02T10:07:17.646Z,24.4
2023-01-02T10:12:20.222Z,24.4
2023-01-02T10:17:38.709Z,24.5
2023-01-02T10:22:56.671Z,24.5
2023-01-02T10:28:15.117Z,24.6
2023-01-02T10:33:23.511Z,24.6
2023-01-02T10:38:42.083Z,24.7
2023-01-02T10:44:00.569Z,24.7
2023-01-02T10:49:19.137Z,24.7
2023-01-02T10:54:44.199Z,24.7
2023-01-02T11:00:11.418Z,24.8
2023-01-02T11:05:15.565Z,24.8
2023-01-02T11:10:34.088Z,24.9
2023-01-02T11:15:52.388Z,24.8
2023-01-02T11:21:10.952Z,24.9
2023-01-02T11:26:29.935Z,24.9
2023-01-02T11:31:57.603Z,24.9
2023-01-02T11:37:19.544Z,24.9
2023-01-02T11:42:22.173Z,24.9
2023-01-02T11:47:40.923Z,24.9
2023-01-02T11:52:59.127Z,24.9
2023-01-02T11:58:17.655Z,24.9
2023-01-02T12:03:41.461Z,24.9
2023-01-02T12:08:52.022Z,24.9
2023-01-02T12:14:10.375Z,24.8
2023-01-02T12:19:28.593Z,24.8
2023-01-02T12:24:47.345Z,24.8
2023-01-02T12:30:05.571Z,24.8
2023-01-02T12:35:23.741Z,24.8
2023-01-02T12:40:42.248Z,24.8
2023-01-02T12:46:00.809Z,24.8
2023-01-02T12:51:19.271Z,24.8
2023-01-02T12:56:37.761Z,24.8
2023-01-02T13:01:56.322Z,24.7
2023-01-02T13:07:14.736Z,24.7
2023-01-02T13:12:17.623Z,24.7
2023-01-02T13:17:35.934Z,24.7
2023-01-02T13:22:56.319Z,24.7
2023-01-02T13:28:14.828Z,24.7
2023-01-02T13:33:33.088Z,24.7
2023-01-02T13:38:51.577Z,24.7
2023-01-02T13:44:09.831Z,24.6
2023-01-02T13:49:28.395Z,24.6
2023-01-02T13:54:46.935Z,24.6
2023-01-02T14:00:05.124Z,24.6
2023-01-02T14:05:23.677Z,24.6
2023-01-02T14:10:41.866Z,24.6
2023-01-02T14:15:59.841Z,24.5
2023-01-02T14:21:18.362Z,24.5
2023-01-02T14:26:36.702Z,24.5
2023-01-02T14:31:39.596Z,24.5
2023-01-02T14:36:58.020Z,24.5
2023-01-02T14:42:16.211Z,24.5
2023-01-02T14:47:34.967Z,24.5
2023-01-02T14:52:53.864Z,24.5
2023-01-02T14:58:12.722Z,24.5
2023-01-02T15:03:31.875Z,24.5
2023-01-02T15:08:50.929Z,24.3
2023-01-02T15:14:09.134Z,24.3
2023-01-02T15:19:27.041Z,24.3
2023-01-02T15:24:45.449Z,24.3
2023-01-02T15:30:04.214Z,24.3
2023-01-02T15:35:22.463Z,24.3
2023-01-02T15:40:41.190Z,24.3
2023-01-02T15:45:59.413Z,24.3
2023-01-02T15:51:17.929Z,24.3
2023-01-02T15:56:36.438Z,24.2
2023-01-02T16:01:55.417Z,24.1
2023-01-02T16:07:13.639Z,24.1
2023-01-02T16:12:31.886Z,24.1
2023-01-02T16:17:50.539Z,24.1
2023-01-02T16:23:08.723Z,24.1
2023-01-02T16:28:37.295Z,24.1
2023-01-02T16:33:55.660Z,24.1
2023-01-02T16:39:14.428Z,24.1
2023-01-02T16:44:33.048Z,24.1
2023-01-02T16:49:51.972Z,24.1
2023-01-02T16:55:10.451Z,24.1
2023-01-02T17:00:43.527Z,24.1
2023-01-02T17:06:03.406Z,24.1
2023-01-02T17:11:21.331Z,24
2023-01-02T17:16:40.106Z,24
2023-01-02T17:21:58.447Z,24
2023-01-02T17:27:16.968Z,24
2023-01-02T17:32:35.284Z,24
2023-01-02T17:37:53.915Z,24
2023-01-02T17:43:12.119Z,24
2023-01-02T17:48:30.299Z,24
2023-01-02T17:53:49.339Z,24
2023-01-02T17:59:07.823Z,24
2023-01-02T18:04:26.467Z,24
2023-01-02T18:10:10.341Z,24
2023-01-02T18:15:35.637Z,24
2023-01-02T18:20:54.178Z,24
2023-01-02T18:26:12.721Z,24
2023-01-02T18:31:30.914Z,24
2023-01-02T18:36:49.411Z,24
2023-01-02T18:42:07.582Z,23.9
2023-01-02T18:47:26.347Z,24
2023-01-02T18:52:44.847Z,24
2023-01-02T18:58:03.592Z,23.9
2023-01-02T19:03:22.245Z,23.9
2023-01-02T19:08:40.273Z,23.9
2023-01-02T19:13:59.447Z,23.9
2023-01-02T19:19:17.349Z,23.9
2023-01-02T19:24:35.964Z,23.9
2023-01-02T19:29:54.185Z,23.9
2023-01-02T19:35:12.362Z,23.9
2023-01-02T19:40:30.793Z,23.9
2023-01-02T19:45:49.194Z,23.9
2023-01-02T19:51:07.845Z,23.9
2023-01-02T19:56:26.340Z,23.9
2023-01-02T20:01:45.092Z,23.9
2023-01-02T20:07:03.764Z,23.9
2023-01-02T20:12:22.273Z,23.9
2023-01-02T20:17:46.126Z,23.9
2023-01-02T20:23:04.387Z,23.9
2023-01-02T20:28:08.053Z,23.9
2023-01-02T20:33:26.806Z,23.9
2023-01-02T20:38:45.324Z,23.9
2023-01-02T20:44:03.863Z,23.9
2023-01-02T20:49:22.335Z,23.9
2023-01-02T20:54:40.888Z,23.9
2023-01-02T20:59:59.394Z,23.9
2023-01-02T21:05:17.700Z,23.9
2023-01-02T21:10:36.465Z,23.9
2023-01-02T21:15:55.318Z,23.9
2023-01-02T21:21:13.665Z,23.9
2023-01-02T21:26:32.167Z,23.9
2023-01-02T21:31:50.639Z,23.9
2023-01-02T21:36:54.479Z,23.9
2023-01-02T21:42:12.983Z,23.9
2023-01-02T21:47:31.554Z,23.9
2023-01-02T21:52:50.020Z,23.9
2023-01-02T21:58:14.814Z,23.9
2023-01-02T22:03:34.104Z,23.9
2023-01-02T22:08:52.671Z,23.9
2023-01-02T22:14:10.882Z,23.9
2023-01-02T22:19:29.284Z,23.9
2023-01-02T22:24:47.763Z,23.9
2023-01-02T22:30:34.702Z,23.9
2023-01-02T22:35:53.851Z,23.9
2023-01-02T22:41:12.345Z,23.8
2023-01-02T22:46:30.917Z,23.8
2023-01-02T22:52:07.633Z,23.8
2023-01-02T22:57:26.296Z,23.8
2023-01-02T23:02:44.793Z,23.8
2023-01-02T23:08:04.003Z,23.8
2023-01-02T23:13:22.555Z,23.8
2023-01-02T23:18:41.322Z,23.8
2023-01-02T23:23:59.868Z,23.8
2023-01-02T23:29:18.353Z,23.8
2023-01-02T23:34:37.135Z,23.8
2023-01-02T23:39:55.356Z,23.8
2023-01-02T23:45:13.566Z,23.8
2023-01-02T23:50:32.346Z,23.8
2023-01-02T23:55:35.571Z,23.8
